Time;durP1;ratioP1;P1;durP2;ratioP2;P2;SDS_P1;SDS_P2;PMS_P1;PMS_P2;Temp;Humidity;BMP_temperature;BMP_pressure;BME280_temperature;BME280_humidity;BME280_pressure;Samples;Min_cycle;Max_cycle;Signal;HPM_P1;HPM_P2
2023/04/29 00:00:09;;;;;;;13.50;9.10;;;;;;;1.14;100.00;101296.96;107175;1244;60988;-69
2023/04/29 00:03:00;;;;;;;14.70;10.20;;;;;;;1.11;100.00;101297.52;107218;1255;75444;-73
2023/04/29 00:05:30;;;;;;;17.40;10.60;;;;;;;1.19;100.00;101295.63;107163;1242;72059;-69
2023/04/29 00:07:59;;;;;;;17.40;10.90;;;;;;;1.24;100.00;101294.80;107148;1244;68722;-67
2023/04/29 00:10:28;;;;;;;14.70;10.20;;;;;;;1.21;100.00;101291.63;107176;1244;71338;-67
2023/04/29 00:12:57;;;;;;;18.40;10.50;;;;;;;1.20;100.00;101293.88;107177;1241;59898;-66
2023/04/29 00:15:26;;;;;;;17.20;10.10;;;;;;;1.21;100.00;101291.29;107183;1244;59879;-67
2023/04/29 00:17:55;;;;;;;15.00;9.40;;;;;;;1.20;100.00;101293.02;107299;1245;74022;-67
2023/04/29 00:20:24;;;;;;;16.40;9.60;;;;;;;1.18;100.00;101288.27;107218;1252;73227;-68
2023/04/29 00:22:53;;;;;;;15.60;9.90;;;;;;;1.17;100.00;101287.94;107333;1245;68673;-67
2023/04/29 00:25:22;;;;;;;13.10;9.10;;;;;;;1.13;100.00;101289.59;107258;1252;72023;-68
2023/04/29 00:27:51;;;;;;;14.90;9.20;;;;;;;1.09;100.00;101291.42;107240;1245;60709;-68
2023/04/29 00:30:20;;;;;;;17.00;9.40;;;;;;;1.05;100.00;101294.39;107355;1243;58270;-67
2023/04/29 00:32:49;;;;;;;16.10;9.20;;;;;;;1.03;100.00;101294.98;107295;1241;71980;-68
2023/04/29 00:35:18;;;;;;;19.30;9.20;;;;;;;0.98;100.00;101296.13;107316;1244;70550;-67
2023/04/29 00:37:47;;;;;;;12.70;8.30;;;;;;;0.94;100.00;101295.02;107241;1253;67863;-67
2023/04/29 00:40:16;;;;;;;16.00;8.70;;;;;;;0.87;100.00;101296.20;107337;1244;71344;-66
2023/04/29 00:42:45;;;;;;;11.20;8.30;;;;;;;0.74;100.00;101297.86;107265;1255;60682;-66
2023/04/29 00:45:14;;;;;;;14.50;8.20;;;;;;;0.63;100.00;101296.57;107321;1251;58994;-68
2023/04/29 00:47:43;;;;;;;14.80;8.80;;;;;;;0.57;100.00;101298.59;107284;1242;71018;-70
2023/04/29 00:50:12;;;;;;;17.40;9.40;;;;;;;0.53;100.00;101297.98;107246;1246;69507;-69
2023/04/29 00:52:42;;;;;;;13.00;8.90;;;;;;;0.49;100.00;101302.69;107338;1255;67913;-68
2023/04/29 00:55:12;;;;;;;13.20;9.10;;;;;;;0.46;100.00;101306.19;107255;1244;71185;-69
2023/04/29 00:57:41;;;;;;;14.40;9.90;;;;;;;0.40;100.00;101304.79;107300;1254;60907;-84
2023/04/29 01:00:11;;;;;;;13.80;8.30;;;;;;;0.36;100.00;101306.07;107460;1255;59416;-69
2023/04/29 01:02:40;;;;;;;12.70;9.40;;;;;;;0.30;100.00;101306.17;107400;1241;72723;-70
2023/04/29 01:05:09;;;;;;;14.00;8.60;;;;;;;0.24;100.00;101307.48;107331;1255;69125;-70
2023/04/29 01:08:03;;;;;;;15.20;9.50;;;;;;;0.20;100.00;101308.09;107291;1244;68787;-71
2023/04/29 01:10:43;;;;;;;17.50;9.20;;;;;;;0.13;100.00;101309.08;107363;1242;72563;-73
2023/04/29 01:13:37;;;;;;;15.00;9.00;;;;;;;0.09;100.00;101304.70;107256;1244;59522;-70
2023/04/29 01:16:24;;;;;;;26.00;17.30;;;;;;;0.05;100.00;101307.70;107301;1245;60026;-70
2023/04/29 01:19:06;;;;;;;26.90;18.10;;;;;;;0.04;100.00;101313.37;107363;1248;73605;-68
2023/04/29 01:21:47;;;;;;;25.50;15.90;;;;;;;0.04;100.00;101315.42;107357;1244;70262;-68
2023/04/29 01:24:16;;;;;;;17.00;11.20;;;;;;;0.01;100.00;101316.86;107265;1243;68685;-70
2023/04/29 01:27:28;;;;;;;14.90;10.00;;;;;;;-0.01;100.00;101315.70;107333;1251;73377;-70
2023/04/29 01:30:51;;;;;;;20.60;13.90;;;;;;;-0.03;100.00;101315.89;107324;1244;62262;-69
2023/04/29 01:33:43;;;;;;;18.50;11.90;;;;;;;-0.04;100.00;101315.06;107135;1255;59990;-70
2023/04/29 01:36:57;;;;;;;17.60;11.80;;;;;;;-0.06;100.00;101314.42;107316;1255;70717;-69
2023/04/29 01:39:44;;;;;;;18.80;10.60;;;;;;;-0.07;100.00;101312.89;107261;1242;71630;-70
2023/04/29 01:42:26;;;;;;;15.30;9.80;;;;;;;-0.06;100.00;101312.71;107299;1251;67688;-70
2023/04/29 01:45:01;;;;;;;43.30;16.40;;;;;;;-0.06;100.00;101312.53;107371;1244;73208;-70
2023/04/29 01:47:31;;;;;;;34.60;14.40;;;;;;;-0.07;100.00;101310.83;107041;1247;61297;-71
2023/04/29 01:50:01;;;;;;;27.90;14.50;;;;;;;-0.09;100.00;101306.41;107065;1248;59050;-68
2023/04/29 01:52:31;;;;;;;25.10;12.60;;;;;;;-0.09;100.00;101309.68;107115;1254;72722;-69
2023/04/29 01:55:02;;;;;;;23.10;13.00;;;;;;;-0.11;100.00;101306.98;107143;1242;73132;-69
2023/04/29 01:57:43;;;;;;;18.60;11.60;;;;;;;-0.10;100.00;101304.75;107020;1241;71296;-69
2023/04/29 02:00:39;;;;;;;16.60;11.00;;;;;;;-0.13;100.00;101301.87;107048;1242;73840;-71
2023/04/29 02:03:09;;;;;;;16.70;10.60;;;;;;;-0.16;100.00;101300.91;107204;1246;61200;-69
2023/04/29 02:05:43;;;;;;;13.80;8.90;;;;;;;-0.21;100.00;101297.58;107134;1248;61420;-69
2023/04/29 02:08:13;;;;;;;13.80;9.00;;;;;;;-0.25;100.00;101296.80;107327;1245;71274;-71
2023/04/29 02:10:58;;;;;;;16.50;9.30;;;;;;;-0.30;100.00;101296.02;107382;1244;71620;-69
2023/04/29 02:13:46;;;;;;;14.10;10.00;;;;;;;-0.34;100.00;101297.98;107297;1245;71924;-71
2023/04/29 02:16:15;;;;;;;16.10;9.90;;;;;;;-0.36;100.00;101293.56;107401;1244;71721;-70
2023/04/29 02:18:49;;;;;;;15.50;9.70;;;;;;;-0.39;100.00;101296.70;107179;1243;61551;-70
2023/04/29 02:21:18;;;;;;;15.60;10.10;;;;;;;-0.42;100.00;101298.98;107329;1248;61755;-70
2023/04/29 02:23:47;;;;;;;14.80;9.90;;;;;;;-0.45;100.00;101299.73;107264;1251;73886;-69
2023/04/29 02:26:16;;;;;;;18.50;9.90;;;;;;;-0.47;100.00;101301.11;107335;1249;70752;-70
2023/04/29 02:28:46;;;;;;;15.50;9.80;;;;;;;-0.46;100.00;101305.55;107325;1255;67832;-70
2023/04/29 02:31:14;;;;;;;15.80;10.10;;;;;;;-0.45;100.00;101307.79;107374;1241;72964;-70
2023/04/29 02:33:45;;;;;;;17.00;10.00;;;;;;;-0.45;100.00;101308.80;107340;1243;59189;-70
2023/04/29 02:36:14;;;;;;;14.70;9.70;;;;;;;-0.47;100.00;101310.34;107330;1241;58817;-70
2023/04/29 02:38:44;;;;;;;15.00;9.80;;;;;;;-0.47;100.00;101308.48;107237;1241;71065;-70
2023/04/29 02:41:17;;;;;;;13.60;9.60;;;;;;;-0.51;100.00;101308.39;107326;1244;70343;-71
2023/04/29 02:43:48;;;;;;;16.60;10.60;;;;;;;-0.51;100.00;101307.19;107350;1242;66893;-70
2023/04/29 02:46:17;;;;;;;15.40;10.60;;;;;;;-0.51;100.00;101310.61;107303;1245;71333;-70
2023/04/29 02:48:46;;;;;;;20.10;10.90;;;;;;;-0.51;100.00;101305.30;107395;1244;60941;-70
2023/04/29 02:51:15;;;;;;;15.40;10.10;;;;;;;-0.50;100.00;101304.27;107201;1245;59714;-72
2023/04/29 02:53:44;;;;;;;14.80;9.60;;;;;;;-0.51;100.00;101302.23;107243;1245;72235;-70
2023/04/29 02:56:13;;;;;;;18.70;9.70;;;;;;;-0.55;100.00;101299.55;107253;1245;69795;-70
2023/04/29 02:58:42;;;;;;;16.20;9.70;;;;;;;-0.58;100.00;101303.17;107352;1255;67891;-69
2023/04/29 03:01:11;;;;;;;15.80;9.60;;;;;;;-0.59;100.00;101303.89;107267;1245;72128;-70
2023/04/29 03:03:40;;;;;;;16.20;10.00;;;;;;;-0.60;100.00;101310.77;107251;1255;62718;-69
2023/04/29 03:06:10;;;;;;;18.90;10.70;;;;;;;-0.61;100.00;101315.91;107246;1245;59674;-69
2023/04/29 03:08:39;;;;;;;16.80;11.00;;;;;;;-0.60;100.00;101320.16;107246;1244;72100;-69
2023/04/29 03:11:08;;;;;;;15.00;10.30;;;;;;;-0.59;100.00;101319.98;107019;1244;437521;-69
2023/04/29 03:13:37;;;;;;;15.90;10.10;;;;;;;-0.62;100.00;101319.35;107340;1247;67195;-70
2023/04/29 03:16:07;;;;;;;16.40;11.70;;;;;;;-0.60;100.00;101325.65;107345;1244;74859;-70
2023/04/29 03:18:36;;;;;;;16.10;10.50;;;;;;;-0.59;100.00;101320.83;107398;1241;60861;-70
2023/04/29 03:21:05;;;;;;;17.40;11.00;;;;;;;-0.58;100.00;101326.11;107405;1242;59462;-70
2023/04/29 03:23:34;;;;;;;16.00;10.90;;;;;;;-0.58;100.00;101320.29;107453;1244;70757;-71
2023/04/29 03:26:04;;;;;;;17.20;10.00;;;;;;;-0.56;100.00;101327.29;107193;1246;72006;-72
2023/04/29 03:28:33;;;;;;;19.50;12.40;;;;;;;-0.54;100.00;101329.65;107436;1245;67339;-70
2023/04/29 03:31:02;;;;;;;23.50;14.40;;;;;;;-0.51;100.00;101332.35;107376;1245;72022;-69
2023/04/29 03:33:31;;;;;;;25.90;14.90;;;;;;;-0.48;100.00;101334.67;107355;1244;59141;-70
2023/04/29 03:36:00;;;;;;;24.30;14.40;;;;;;;-0.46;100.00;101335.16;107244;1255;59075;-70
2023/04/29 03:38:42;;;;;;;24.70;13.60;;;;;;;-0.45;100.00;101333.77;107311;1241;72630;-70
2023/04/29 03:41:11;;;;;;;17.10;11.50;;;;;;;-0.42;100.00;101331.84;107133;1244;70888;-70
2023/04/29 03:43:42;;;;;;;26.50;12.60;;;;;;;-0.39;100.00;101331.77;107315;1241;67929;-69
2023/04/29 03:46:11;;;;;;;18.70;11.70;;;;;;;-0.33;100.00;101336.83;107157;1248;73705;-69
2023/04/29 03:48:41;;;;;;;18.50;11.50;;;;;;;-0.26;100.00;101339.95;107250;1244;60333;-68
2023/04/29 03:51:10;;;;;;;17.30;11.10;;;;;;;-0.21;100.00;101339.67;107182;1244;59843;-65
2023/04/29 03:53:40;;;;;;;19.80;11.10;;;;;;;-0.14;100.00;101340.60;107122;1254;72770;-68
2023/04/29 03:56:08;;;;;;;19.30;12.50;;;;;;;-0.07;100.00;101343.20;107208;1244;71628;-67
2023/04/29 03:58:37;;;;;;;24.20;13.20;;;;;;;0.02;100.00;101346.46;107055;1251;69836;-65
2023/04/29 04:01:07;;;;;;;18.90;12.50;;;;;;;0.12;100.00;101350.58;107181;1245;74680;-67
2023/04/29 04:03:42;;;;;;;22.50;13.50;;;;;;;0.22;100.00;101348.48;107224;1244;61142;-67
2023/04/29 04:06:11;;;;;;;22.40;13.50;;;;;;;0.32;100.00;101348.97;107297;1248;62358;-66
2023/04/29 04:08:40;;;;;;;24.40;13.20;;;;;;;0.45;100.00;101353.84;107309;1255;71561;-65
2023/04/29 04:11:21;;;;;;;27.40;13.60;;;;;;;0.59;100.00;101352.52;107298;1245;71728;-67
2023/04/29 04:13:56;;;;;;;25.50;13.20;;;;;;;0.69;100.00;101354.55;107222;1255;67993;-69
2023/04/29 04:16:25;;;;;;;24.40;12.50;;;;;;;0.79;100.00;101352.46;107241;1244;71146;-68
2023/04/29 04:18:55;;;;;;;24.20;13.30;;;;;;;0.95;100.00;101347.65;107213;1244;59463;-68
2023/04/29 04:21:24;;;;;;;23.10;12.90;;;;;;;1.09;100.00;101343.20;107199;1248;61148;-68
2023/04/29 04:24:00;;;;;;;24.10;12.10;;;;;;;1.18;100.00;101342.65;107347;1244;71508;-68
2023/04/29 04:26:30;;;;;;;19.40;11.00;;;;;;;1.25;100.00;101346.24;107324;1241;72296;-69
2023/04/29 04:29:16;;;;;;;20.40;11.40;;;;;;;1.34;100.00;101346.41;107301;1244;68890;-68
2023/04/29 04:32:08;;;;;;;25.60;13.00;;;;;;;1.45;100.00;101348.86;107349;1244;70810;-68
2023/04/29 04:34:38;;;;;;;27.30;13.10;;;;;;;1.58;100.00;101347.88;107274;1241;59676;-68
2023/04/29 04:37:07;;;;;;;21.00;12.20;;;;;;;1.71;100.00;101347.38;107413;1254;58973;-68
2023/04/29 04:39:38;;;;;;;24.30;12.90;;;;;;;1.92;100.00;101347.69;107318;1244;72842;-68
2023/04/29 04:42:07;;;;;;;21.90;12.60;;;;;;;2.01;100.00;101347.80;107228;1253;71587;-67
2023/04/29 04:44:37;;;;;;;22.10;11.60;;;;;;;2.10;100.00;101345.64;107283;1244;70747;-69
2023/04/29 04:47:08;;;;;;;23.70;12.50;;;;;;;2.20;100.00;101346.07;107269;1244;73519;-68
2023/04/29 04:49:51;;;;;;;20.60;11.00;;;;;;;2.30;100.00;101343.20;107219;1246;59365;-67
2023/04/29 04:52:21;;;;;;;20.60;11.00;;;;;;;2.41;100.00;101346.52;107339;1253;59742;-69
2023/04/29 04:55:00;;;;;;;17.60;10.60;;;;;;;2.53;100.00;101350.98;107625;1244;71051;-68
2023/04/29 04:57:30;;;;;;;18.30;9.70;;;;;;;2.64;100.00;101351.01;107384;1241;71412;-69
2023/04/29 05:00:02;;;;;;;21.60;10.90;;;;;;;2.73;100.00;101347.13;107323;1254;68430;-68
2023/04/29 05:02:33;;;;;;;15.40;8.80;;;;;;;2.82;100.00;101351.85;107416;1252;74815;-69
2023/04/29 05:05:02;;;;;;;10.60;7.00;;;;;;;2.87;100.00;101350.30;107458;1242;60739;-70
2023/04/29 05:07:34;;;;;;;15.50;9.40;;;;;;;2.91;100.00;101347.77;107420;1245;59172;-70
2023/04/29 05:10:07;;;;;;;16.90;10.10;;;;;;;2.96;100.00;101349.02;107383;1253;63092;-71
2023/04/29 05:12:42;;;;;;;16.40;9.50;;;;;;;3.02;100.00;101349.17;107246;1244;72447;-72
2023/04/29 05:15:13;;;;;;;16.60;9.00;;;;;;;3.08;100.00;101346.23;107679;1245;70270;-74
2023/04/29 05:17:42;;;;;;;13.80;8.20;;;;;;;3.18;100.00;101348.17;107158;1246;72650;-73
2023/04/29 05:20:12;;;;;;;14.10;9.40;;;;;;;3.27;100.00;101350.11;107179;1244;62279;-70
2023/04/29 05:22:40;;;;;;;8.60;4.90;;;;;;;3.38;100.00;101344.45;107202;1255;60740;-70
2023/04/29 05:25:09;;;;;;;12.10;8.00;;;;;;;3.49;100.00;101349.06;107037;1248;73621;-70
2023/04/29 05:27:39;;;;;;;14.30;8.70;;;;;;;3.56;100.00;101346.44;107194;1242;70056;-70
2023/04/29 05:30:11;;;;;;;12.40;7.60;;;;;;;3.64;100.00;101347.20;107147;1245;69944;-71
2023/04/29 05:32:40;;;;;;;18.60;7.30;;;;;;;3.74;100.00;101345.13;107195;1252;74485;-70
2023/04/29 05:35:11;;;;;;;18.20;10.00;;;;;;;3.85;100.00;101348.54;107121;1255;61232;-70
2023/04/29 05:37:40;;;;;;;13.10;8.40;;;;;;;4.00;100.00;101349.75;107099;1248;61872;-70
2023/04/29 05:40:22;;;;;;;21.20;10.60;;;;;;;4.13;100.00;101349.27;107115;1244;62898;-70
2023/04/29 05:42:51;;;;;;;14.50;8.80;;;;;;;4.23;100.00;101346.86;107033;1252;62229;-70
2023/04/29 05:45:20;;;;;;;13.60;9.50;;;;;;;4.42;100.00;101347.57;107035;1248;69397;-70
2023/04/29 05:47:50;;;;;;;15.90;9.70;;;;;;;4.55;99.95;101344.34;107009;1248;72737;-69
2023/04/29 05:50:19;;;;;;;20.40;10.50;;;;;;;4.65;99.88;101342.23;107091;1244;60891;-69
2023/04/29 05:52:48;;;;;;;18.40;10.20;;;;;;;4.79;99.90;101337.89;107289;1241;62038;-69
2023/04/29 05:55:24;;;;;;;14.00;9.10;;;;;;;4.91;99.84;101337.59;107229;1255;63739;-69
2023/04/29 05:57:53;;;;;;;18.70;10.10;;;;;;;5.06;98.67;101340.64;107084;1249;62270;-70
2023/04/29 06:00:22;;;;;;;15.80;7.50;;;;;;;5.11;98.71;101340.80;107405;1255;60749;-69
2023/04/29 06:02:53;;;;;;;18.80;11.30;;;;;;;5.28;97.78;101340.62;107202;1241;74334;-69
2023/04/29 06:05:28;;;;;;;22.10;10.30;;;;;;;5.36;97.92;101337.56;107368;1254;57671;-71
2023/04/29 06:08:14;;;;;;;23.80;11.70;;;;;;;5.49;97.97;101331.31;107395;1245;59650;-69
2023/04/29 06:10:55;;;;;;;24.40;11.90;;;;;;;5.70;96.33;101328.36;107451;1245;63315;-72
2023/04/29 06:13:29;;;;;;;16.70;10.00;;;;;;;5.84;95.57;101324.14;107253;1241;70858;-71
2023/04/29 06:15:58;;;;;;;13.50;8.60;;;;;;;5.94;95.58;101327.04;107240;1255;61759;-71
2023/04/29 06:18:30;;;;;;;16.40;9.60;;;;;;;6.04;95.34;101331.07;107334;1255;63342;-70
2023/04/29 06:21:00;;;;;;;16.60;9.90;;;;;;;6.14;95.00;101330.66;107416;1245;61215;-72
2023/04/29 06:23:31;;;;;;;15.10;9.20;;;;;;;6.24;94.91;101331.42;107271;1255;60803;-73
2023/04/29 06:26:04;;;;;;;12.20;8.30;;;;;;;6.43;94.11;101325.20;107328;1245;63007;-70
2023/04/29 06:28:33;;;;;;;16.20;9.50;;;;;;;6.56;93.28;101324.06;107404;1244;60742;-70
2023/04/29 06:31:02;;;;;;;15.60;9.50;;;;;;;6.72;92.37;101318.00;107342;1245;70398;-69
2023/04/29 06:33:33;;;;;;;15.20;9.20;;;;;;;6.87;91.59;101315.40;107283;1254;74001;-68
2023/04/29 06:36:02;;;;;;;16.10;10.40;;;;;;;7.03;90.66;101313.41;107371;1241;61182;-69
2023/04/29 06:38:49;;;;;;;17.30;10.60;;;;;;;7.19;90.40;101313.15;107481;1241;57344;-69
2023/04/29 06:41:41;;;;;;;21.20;11.50;;;;;;;7.39;88.68;101308.36;107485;1245;63199;-71
2023/04/29 06:45:07;;;;;;;13.30;9.00;;;;;;;7.53;88.32;101301.59;107102;1248;61184;-69
2023/04/29 06:47:42;;;;;;;15.80;9.00;;;;;;;7.71;86.08;101303.11;107273;1241;71312;-69
2023/04/29 06:50:13;;;;;;;13.00;7.70;;;;;;;7.84;84.69;101298.98;107315;1245;63694;-71
2023/04/29 06:52:44;;;;;;;16.70;8.10;;;;;;;7.96;82.11;101299.03;107389;1244;58883;-71
2023/04/29 06:55:13;;;;;;;15.30;7.20;;;;;;;8.14;83.19;101300.37;107315;1255;58357;-69
2023/04/29 06:57:43;;;;;;;11.40;6.60;;;;;;;8.32;79.28;101298.34;107333;1255;62435;-70
2023/04/29 07:00:15;;;;;;;15.90;8.20;;;;;;;8.52;78.79;101295.58;107298;1242;72300;-71
2023/04/29 07:02:44;;;;;;;15.30;8.50;;;;;;;8.64;75.94;101291.98;107378;1246;59905;-71
2023/04/29 07:05:13;;;;;;;10.50;7.70;;;;;;;8.75;75.46;101289.41;107374;1244;62526;-70
2023/04/29 07:07:43;;;;;;;10.60;6.60;;;;;;;8.94;75.65;101289.25;107320;1244;60457;-69
2023/04/29 07:10:12;;;;;;;12.80;6.80;;;;;;;9.11;74.47;101290.71;107337;1245;61208;-70
2023/04/29 07:12:41;;;;;;;16.20;7.40;;;;;;;9.22;73.54;101282.96;107298;1244;74042;-70
2023/04/29 07:15:10;;;;;;;10.10;5.20;;;;;;;9.34;71.54;101278.27;107352;1245;72299;-72
2023/04/29 07:17:39;;;;;;;7.90;4.50;;;;;;;9.47;58.81;101271.23;107400;1254;70527;-72
2023/04/29 07:20:09;;;;;;;8.00;4.70;;;;;;;9.65;58.97;101268.09;107357;1241;73497;-71
2023/04/29 07:22:38;;;;;;;8.90;5.20;;;;;;;9.83;57.88;101268.40;107342;1244;58739;-69
2023/04/29 07:25:09;;;;;;;10.00;4.60;;;;;;;9.97;51.17;101267.54;107449;1243;57554;-72
2023/04/29 07:27:39;;;;;;;8.60;4.10;;;;;;;10.13;50.45;101262.55;107447;1244;73433;-71
2023/04/29 07:30:09;;;;;;;7.40;3.60;;;;;;;10.33;50.77;101260.98;107409;1246;72045;-73
2023/04/29 07:32:37;;;;;;;7.00;4.30;;;;;;;10.50;50.93;101265.66;107261;1254;69999;-72
2023/04/29 07:35:07;;;;;;;8.90;4.00;;;;;;;10.61;51.03;101260.94;107503;1244;75738;-73
2023/04/29 07:37:36;;;;;;;8.00;3.90;;;;;;;10.65;49.60;101257.29;107310;1244;61138;-72
2023/04/29 07:40:11;;;;;;;6.00;3.40;;;;;;;10.76;48.46;101252.35;107398;1255;62116;-72
2023/04/29 07:42:40;;;;;;;7.50;3.70;;;;;;;10.95;46.59;101251.49;107186;1241;74240;-78
2023/04/29 07:45:10;;;;;;;9.20;3.50;;;;;;;11.00;46.10;101249.42;107045;1248;72522;-74
2023/04/29 07:47:39;;;;;;;6.80;3.60;;;;;;;11.09;45.80;101249.13;107400;1244;59575;-75
2023/04/29 07:50:11;;;;;;;9.20;3.80;;;;;;;11.28;46.78;101246.49;108610;1241;73387;-74
2023/04/29 07:52:40;;;;;;;6.60;3.40;;;;;;;11.47;47.06;101245.77;108150;1241;57717;-74
2023/04/29 07:55:09;;;;;;;6.00;3.10;;;;;;;11.61;46.73;101247.25;107722;1244;59066;-76
2023/04/29 07:57:38;;;;;;;6.50;3.10;;;;;;;11.58;43.35;101241.99;107703;1244;62346;-74
2023/04/29 08:00:09;;;;;;;4.90;2.70;;;;;;;11.55;42.03;101244.36;107348;1241;71670;-76
2023/04/29 08:02:44;;;;;;;5.60;2.80;;;;;;;11.53;41.00;101233.30;107413;1241;62404;-74
2023/04/29 08:05:15;;;;;;;7.80;2.70;;;;;;;11.60;41.54;101234.21;107283;1244;62718;-75
2023/04/29 08:07:48;;;;;;;4.50;2.20;;;;;;;11.75;41.95;101234.91;107307;1244;58795;-74
2023/04/29 08:10:21;;;;;;;5.40;2.50;;;;;;;11.77;41.21;101234.27;107177;1242;61044;-76
2023/04/29 08:12:50;;;;;;;5.90;2.80;;;;;;;11.71;41.12;101229.80;107151;1254;62652;-75
2023/04/29 08:15:19;;;;;;;6.10;2.70;;;;;;;11.73;41.51;101231.91;107127;1246;61985;-72
2023/04/29 08:17:48;;;;;;;5.50;2.50;;;;;;;11.90;41.45;101231.14;107340;1245;59298;-74
2023/04/29 08:20:17;;;;;;;4.90;2.70;;;;;;;11.99;40.80;101222.14;107389;1241;62858;-75
2023/04/29 08:22:46;;;;;;;9.20;2.70;;;;;;;12.14;41.15;101222.48;107346;1244;58966;-76
2023/04/29 08:25:16;;;;;;;4.50;2.20;;;;;;;12.31;41.89;101218.75;107501;1244;57380;-73
2023/04/29 08:27:45;;;;;;;7.80;2.70;;;;;;;12.36;41.10;101218.45;107427;1254;62044;-73
2023/04/29 08:30:15;;;;;;;4.50;2.70;;;;;;;12.18;38.79;101220.45;107352;1245;72439;-72
2023/04/29 08:32:43;;;;;;;5.60;1.90;;;;;;;12.18;38.75;101219.41;107369;1254;70404;-73
2023/04/29 08:35:12;;;;;;;3.50;2.00;;;;;;;12.16;38.66;101213.96;107330;1244;73294;-77
2023/04/29 08:37:42;;;;;;;4.60;2.30;;;;;;;12.23;38.94;101204.55;107390;1241;61300;-76
2023/04/29 08:40:12;;;;;;;5.40;1.90;;;;;;;12.29;39.11;101202.20;107340;1241;60469;-72
2023/04/29 08:42:44;;;;;;;6.60;2.00;;;;;;;12.59;38.41;101207.38;107214;1246;63492;-74
2023/04/29 08:45:19;;;;;;;3.60;1.80;;;;;;;12.68;36.59;101203.70;107277;1241;62964;-75
2023/04/29 08:47:50;;;;;;;4.20;1.70;;;;;;;12.77;36.24;101205.54;107192;1245;71132;-73
2023/04/29 08:50:19;;;;;;;5.40;2.10;;;;;;;12.72;36.03;101203.91;107209;1245;74231;-74
2023/04/29 08:52:50;;;;;;;7.40;2.40;;;;;;;12.92;35.97;101194.45;107502;1245;60552;-71
2023/04/29 08:55:19;;;;;;;3.80;2.10;;;;;;;13.14;36.65;101186.32;107242;1244;59136;-73
2023/04/29 08:57:49;;;;;;;7.80;2.00;;;;;;;13.36;36.06;101188.73;107230;1248;62433;-73
2023/04/29 09:00:18;;;;;;;4.20;1.80;;;;;;;13.54;35.40;101188.17;107202;1245;62039;-72
2023/04/29 09:02:52;;;;;;;4.60;2.00;;;;;;;13.56;35.09;101192.21;107086;1244;69762;-72
2023/04/29 09:05:22;;;;;;;6.70;2.10;;;;;;;13.40;34.74;101182.21;107108;1241;62964;-72
2023/04/29 09:07:51;;;;;;;5.50;2.00;;;;;;;13.08;35.04;101178.88;106941;1244;59492;-72
2023/04/29 09:10:20;;;;;;;4.30;1.80;;;;;;;13.13;35.15;101180.45;107223;1244;59095;-71
2023/04/29 09:12:50;;;;;;;4.50;1.90;;;;;;;13.28;34.20;101184.52;107176;1255;72829;-70
2023/04/29 09:15:19;;;;;;;2.20;1.60;;;;;;;13.44;34.43;101171.66;107281;1241;73582;-72
2023/04/29 09:17:48;;;;;;;3.60;1.80;;;;;;;13.52;33.42;101169.08;107378;1241;70140;-71
2023/04/29 09:20:20;;;;;;;4.60;1.90;;;;;;;13.60;33.67;101162.36;107342;1247;73451;-70
2023/04/29 09:22:55;;;;;;;3.80;1.70;;;;;;;13.78;32.80;101165.46;107388;1244;61237;-68
2023/04/29 09:25:26;;;;;;;3.90;1.70;;;;;;;13.95;33.36;101161.88;107385;1254;57411;-72
2023/04/29 09:27:55;;;;;;;3.20;1.50;;;;;;;14.07;33.17;101158.50;107318;1244;73814;-71
2023/04/29 09:30:25;;;;;;;5.10;1.90;;;;;;;14.11;32.62;101150.98;107366;1241;72219;-73
2023/04/29 09:33:08;;;;;;;3.30;1.90;;;;;;;14.06;32.33;101149.98;107377;1245;60331;-70
2023/04/29 09:35:39;;;;;;;;;;;;;;;14.19;32.44;101144.55;107320;1244;63891;-77
2023/04/29 09:38:08;;;;;;;3.50;1.90;;;;;;;14.30;32.07;101142.20;107562;1245;57574;-69
2023/04/29 09:40:38;;;;;;;3.40;2.10;;;;;;;14.24;32.07;101137.60;107270;1241;61160;-70
2023/04/29 09:43:26;;;;;;;3.30;1.70;;;;;;;14.32;32.14;101137.86;107265;1254;62905;-71
2023/04/29 09:45:55;;;;;;;3.30;1.80;;;;;;;14.40;32.12;101136.30;107266;1242;71498;-70
2023/04/29 09:48:31;;;;;;;6.50;1.70;;;;;;;14.35;31.96;101134.32;107184;1241;60041;-70
2023/04/29 09:51:01;;;;;;;8.00;1.90;;;;;;;14.48;32.23;101134.46;107248;1245;74349;-71
2023/04/29 09:53:31;;;;;;;4.60;1.80;;;;;;;14.49;32.16;101126.63;107329;1251;57402;-71
2023/04/29 09:56:01;;;;;;;2.60;1.50;;;;;;;14.70;32.68;101120.05;107334;1254;58390;-70
2023/04/29 09:58:36;;;;;;;4.40;1.70;;;;;;;14.69;31.30;101121.54;107339;1254;61993;-71
2023/04/29 10:01:07;;;;;;;4.70;1.70;;;;;;;14.46;31.26;101118.12;107329;1254;61606;-69
2023/04/29 10:03:37;;;;;;;4.00;1.70;;;;;;;14.69;31.33;101113.48;107333;1254;69583;-71
2023/04/29 10:06:07;;;;;;;3.40;1.60;;;;;;;14.66;30.86;101115.15;107311;1244;75448;-71
2023/04/29 10:08:40;;;;;;;3.80;1.80;;;;;;;14.60;30.70;101115.45;107208;1252;61172;-71
2023/04/29 10:11:11;;;;;;;6.10;2.10;;;;;;;14.66;31.64;101112.36;107157;1242;59558;-71
2023/04/29 10:13:43;;;;;;;3.00;1.90;;;;;;;14.70;30.81;101113.58;107194;1254;72717;-70
2023/04/29 10:16:31;;;;;;;3.70;1.60;;;;;;;14.63;30.51;101105.55;107322;1241;72173;-73
2023/04/29 10:19:11;;;;;;;3.60;1.70;;;;;;;14.86;30.98;101104.19;107374;1254;70795;-70
2023/04/29 10:21:40;;;;;;;7.00;3.00;;;;;;;14.58;29.52;101097.20;107371;1241;62906;-75
2023/04/29 10:24:11;;;;;;;3.80;1.80;;;;;;;14.66;29.87;101098.67;107173;1243;58980;-75
2023/04/29 10:26:42;;;;;;;4.20;1.80;;;;;;;15.07;31.28;101092.02;109493;1245;60407;-76
2023/04/29 10:29:13;;;;;;;3.30;2.00;;;;;;;15.11;30.24;101079.96;109532;1243;73274;-75
2023/04/29 10:31:43;;;;;;;5.10;2.00;;;;;;;15.49;30.15;101087.39;107954;1241;61162;-75
2023/04/29 10:34:15;;;;;;;2.70;1.90;;;;;;;15.47;29.54;101090.52;107711;1255;59238;-76
2023/04/29 10:36:45;;;;;;;6.40;2.00;;;;;;;15.76;30.11;101081.81;107455;1245;63245;-76
2023/04/29 10:39:31;;;;;;;3.40;1.70;;;;;;;16.25;30.27;101082.02;107357;1245;59096;-76
2023/04/29 10:42:01;;;;;;;7.80;2.20;;;;;;;16.23;29.19;101076.23;107241;1245;60465;-76
2023/04/29 10:44:30;;;;;;;3.70;1.80;;;;;;;16.63;29.40;101074.88;107353;1244;62567;-76
2023/04/29 10:47:19;;;;;;;7.00;2.70;;;;;;;16.50;28.47;101074.27;107289;1245;61946;-77
2023/04/29 10:50:06;;;;;;;4.10;2.00;;;;;;;16.47;28.44;101077.88;107208;1241;70478;-76
2023/04/29 10:52:57;;;;;;;6.60;2.10;;;;;;;16.09;28.13;101076.11;107268;1248;74155;-76
2023/04/29 10:55:26;;;;;;;4.80;2.20;;;;;;;16.22;28.14;101073.20;107348;1245;58719;-76
2023/04/29 10:57:56;;;;;;;3.20;2.00;;;;;;;16.59;28.47;101067.66;107213;1242;59034;-75
2023/04/29 11:00:30;;;;;;;6.00;2.50;;;;;;;16.70;28.21;101068.45;107490;1244;73470;-75
2023/04/29 11:03:04;;;;;;;5.80;2.10;;;;;;;16.83;27.98;101064.94;107257;1248;72139;-77
2023/04/29 11:05:35;;;;;;;4.30;1.90;;;;;;;16.57;28.04;101061.02;107374;1248;69958;-76
2023/04/29 11:08:11;;;;;;;5.30;1.90;;;;;;;17.20;28.04;101065.16;107477;1254;63720;-78
2023/04/29 11:10:42;;;;;;;5.00;1.70;;;;;;;17.45;27.95;101061.61;107582;1245;59084;-78
2023/04/29 11:13:31;;;;;;;5.80;1.80;;;;;;;17.84;28.02;101058.64;107468;1245;60414;-76
2023/04/29 11:16:05;;;;;;;6.70;1.90;;;;;;;17.86;26.90;101052.63;107276;1248;63791;-78
2023/04/29 11:19:08;;;;;;;3.60;1.80;;;;;;;18.04;27.13;101054.43;107278;1248;60970;-77
2023/04/29 11:21:37;;;;;;;3.10;1.60;;;;;;;17.75;27.37;101050.41;107703;1244;60341;-77
2023/04/29 11:24:06;;;;;;;4.50;1.90;;;;;;;18.07;27.23;101048.16;107382;1245;63257;-79
2023/04/29 11:26:36;;;;;;;6.30;2.60;;;;;;;18.01;26.68;101040.23;107371;1244;59422;-78
2023/04/29 11:29:09;;;;;;;5.90;2.10;;;;;;;18.85;26.68;101036.81;107232;1255;60774;-78
2023/04/29 11:31:38;;;;;;;2.70;1.80;;;;;;;19.40;25.79;101032.83;107474;1244;73218;-77
2023/04/29 11:34:07;;;;;;;2.50;1.60;;;;;;;18.94;24.93;101028.45;107426;1248;61236;-77